Time;durP1;ratioP1;P1;durP2;ratioP2;P2;SDS_P1;SDS_P2;PMS_P1;PMS_P2;Temp;Humidity;BMP_temperature;BMP_pressure;BME280_temperature;BME280_humidity;BME280_pressure;Samples;Min_cycle;Max_cycle;Signal;HPM_P1;HPM_P2
2023/07/16 00:02:03;;;;;;;15.43;4.30;;;20.30;14.90;;;;;;5008629;28;20927;-76
2023/07/16 00:04:36;;;;;;;9.03;3.40;;;20.20;16.90;;;;;;5004089;28;20484;-76
2023/07/16 00:07:02;;;;;;;6.07;3.60;;;20.30;21.00;;;;;;5007015;28;20455;-76
2023/07/16 00:09:28;;;;;;;7.50;4.10;;;20.30;21.70;;;;;;5010532;28;20885;-76
2023/07/16 00:12:17;;;;;;;5.20;3.77;;;20.30;21.90;;;;;;4998837;28;20178;-75
2023/07/16 00:14:48;;;;;;;12.93;4.27;;;20.30;23.90;;;;;;5000609;28;20517;-75
2023/07/16 00:17:14;;;;;;;6.93;4.33;;;20.20;24.80;;;;;;4996178;28;20457;-75
2023/07/16 00:19:48;;;;;;;8.00;3.43;;;20.20;26.50;;;;;;4997057;28;20421;-76
2023/07/16 00:22:18;;;;;;;9.30;4.37;;;20.20;21.70;;;;;;4999717;28;20886;-76
2023/07/16 00:28:06;;;;;;;6.60;3.70;;;20.10;25.90;;;;;;4994888;28;20810;-83
2023/07/16 00:30:31;;;;;;;12.90;3.20;;;20.10;20.20;;;;;;4992668;28;20429;-82
2023/07/16 00:33:41;;;;;;;5.00;3.37;;;20.10;23.10;;;;;;4992540;28;20190;-83
2023/07/16 00:39:30;;;;;;;5.60;3.27;;;20.10;18.30;;;;;;5007824;28;20466;-83
2023/07/16 00:42:48;;;;;;;4.07;2.80;;;20.10;15.60;;;;;;5004139;28;20425;-83
2023/07/16 00:45:18;;;;;;;4.90;3.10;;;20.00;13.60;;;;;;4980444;28;20946;-83
2023/07/16 00:48:18;;;;;;;6.60;3.00;;;20.00;16.10;;;;;;5000798;28;20767;-83
2023/07/16 00:50:50;;;;;;;4.10;2.80;;;20.00;17.10;;;;;;5007308;28;20451;-83
2023/07/16 00:53:16;;;;;;;4.20;2.60;;;19.90;15.20;;;;;;4982177;28;20450;-76
2023/07/16 00:55:42;;;;;;;9.73;2.60;;;19.80;18.20;;;;;;4995029;28;20428;-76
2023/07/16 00:58:08;;;;;;;5.37;2.40;;;19.80;17.80;;;;;;5003395;28;20410;-77
2023/07/16 01:00:37;;;;;;;2.60;2.40;;;19.80;17.30;;;;;;4994799;28;20433;-76
2023/07/16 01:03:09;;;;;;;4.10;2.30;;;19.80;15.10;;;;;;4997471;28;20406;-76
2023/07/16 01:06:01;;;;;;;6.80;2.67;;;19.80;11.80;;;;;;5005983;28;20936;-76
2023/07/16 01:08:57;;;;;;;8.17;2.73;;;19.70;9.40;;;;;;4992977;28;20403;-76
2023/07/16 01:11:25;;;;;;;7.73;2.90;;;19.70;12.40;;;;;;5007410;28;20803;-76
2023/07/16 01:14:18;;;;;;;5.63;2.77;;;19.70;13.60;;;;;;5003132;28;20441;-75
2023/07/16 01:16:44;;;;;;;4.63;2.90;;;19.70;15.20;;;;;;4992170;28;20441;-75
2023/07/16 01:19:18;;;;;;;3.30;2.80;;;19.70;14.60;;;;;;4982026;28;20431;-75
2023/07/16 01:22:06;;;;;;;5.13;2.70;;;19.70;12.20;;;;;;5002987;28;20532;-76
2023/07/16 01:25:06;;;;;;;4.40;2.30;;;19.70;15.00;;;;;;4992392;28;20408;-76
2023/07/16 01:27:41;;;;;;;3.43;2.60;;;19.70;15.80;;;;;;4995566;28;20475;-75
2023/07/16 01:30:18;;;;;;;4.17;2.63;;;19.70;17.40;;;;;;4999974;28;20418;-75
2023/07/16 01:32:45;;;;;;;8.90;2.50;;;19.60;18.00;;;;;;5000201;28;20437;-75
2023/07/16 01:35:19;;;;;;;3.83;2.53;;;19.60;15.80;;;;;;5013596;28;20415;-76
2023/07/16 01:37:45;;;;;;;2.73;2.30;;;19.60;17.60;;;;;;4995459;28;20433;-75
2023/07/16 01:40:11;;;;;;;3.57;2.30;;;19.60;9.20;;;;;;4995179;28;20460;-75
2023/07/16 01:42:42;;;;;;;9.13;2.27;;;19.60;11.70;;;;;;4990458;28;20924;-76
2023/07/16 01:45:08;;;;;;;8.83;3.00;;;19.60;12.70;;;;;;5002961;28;20416;-76
2023/07/16 01:47:51;;;;;;;5.77;2.33;;;19.60;13.30;;;;;;5014673;28;20532;-76
2023/07/16 01:50:18;;;;;;;6.17;2.20;;;19.50;14.30;;;;;;5024586;28;20431;-76
2023/07/16 01:52:44;;;;;;;3.53;2.43;;;19.50;13.20;;;;;;4994012;28;20441;-76
2023/07/16 01:55:18;;;;;;;2.97;2.10;;;19.50;12.50;;;;;;5000146;28;20753;-75
2023/07/16 01:57:44;;;;;;;5.80;2.30;;;19.50;11.10;;;;;;5014723;28;20392;-75
2023/07/16 02:00:36;;;;;;;3.70;2.83;;;19.40;10.70;;;;;;5000781;28;20424;-76
2023/07/16 02:03:18;;;;;;;7.80;2.73;;;19.40;11.70;;;;;;4994586;28;20184;-76
2023/07/16 02:05:44;;;;;;;4.43;2.37;;;19.30;14.40;;;;;;5014648;28;20479;-75
2023/07/16 02:08:12;;;;;;;2.20;1.93;;;19.20;13.10;;;;;;5000990;28;20815;-75
2023/07/16 02:11:05;;;;;;;4.33;2.70;;;19.20;8.80;;;;;;5003593;28;20226;-76
2023/07/16 02:13:31;;;;;;;2.60;2.20;;;19.20;11.20;;;;;;4994972;28;20439;-76
2023/07/16 02:15:57;;;;;;;13.63;2.77;;;19.20;8.50;;;;;;5012522;28;20407;-76
2023/07/16 02:18:30;;;;;;;4.20;1.93;;;19.00;6.60;;;;;;5001304;28;20411;-75
2023/07/16 02:20:56;;;;;;;5.63;2.33;;;19.00;9.50;;;;;;4997923;28;20214;-76
2023/07/16 02:23:47;;;;;;;4.83;2.53;;;19.00;6.30;;;;;;4992158;28;20406;-76
2023/07/16 02:26:13;;;;;;;2.37;2.20;;;18.90;7.20;;;;;;5001366;28;20203;-76
2023/07/16 02:28:48;;;;;;;7.63;2.40;;;18.90;7.20;;;;;;5001511;28;20427;-76
2023/07/16 02:31:36;;;;;;;6.17;2.37;;;18.80;6.30;;;;;;5000148;28;20426;-76
2023/07/16 02:34:23;;;;;;;7.77;2.60;;;18.80;7.30;;;;;;4992746;28;20949;-76
2023/07/16 02:37:29;;;;;;;4.47;2.50;;;18.70;6.60;;;;;;5000491;28;20765;-75
2023/07/16 02:39:55;;;;;;;4.83;2.47;;;18.60;7.40;;;;;;4994612;28;20432;-76
2023/07/16 02:42:24;;;;;;;7.50;3.10;;;18.50;9.70;;;;;;5009456;28;20464;-75
2023/07/16 02:44:54;;;;;;;7.47;3.07;;;18.60;10.20;;;;;;5005204;28;20251;-76
2023/07/16 02:47:53;;;;;;;5.47;2.70;;;18.50;9.60;;;;;;4994877;28;20460;-75
2023/07/16 02:50:24;;;;;;;4.83;2.40;;;18.60;7.60;;;;;;4985826;28;20484;-76
2023/07/16 02:52:54;;;;;;;6.17;2.80;;;18.50;7.70;;;;;;5013989;28;20426;-76
2023/07/16 02:55:20;;;;;;;5.83;2.60;;;18.50;8.10;;;;;;4981613;28;20437;-76
2023/07/16 02:58:12;;;;;;;7.23;3.13;;;18.40;11.60;;;;;;5007540;28;20386;-76
2023/07/16 03:01:12;;;;;;;2.83;2.63;;;18.40;10.00;;;;;;4999870;28;20256;-75
2023/07/16 03:04:17;;;;;;;10.17;3.10;;;18.30;12.40;;;;;;4994885;28;20428;-77
2023/07/16 03:06:54;;;;;;;5.87;2.87;;;18.20;13.80;;;;;;4998854;28;20547;-84
2023/07/16 03:12:42;;;;;;;4.13;2.97;;;18.00;21.40;;;;;;4983803;28;20420;-84
2023/07/16 03:15:53;;;;;;;4.77;2.93;;;18.00;21.30;;;;;;5007628;28;20428;-84
2023/07/16 03:18:30;;;;;;;5.37;3.50;;;18.00;24.60;;;;;;5005614;28;20584;-84
2023/07/16 03:24:36;;;;;;;5.30;2.77;;;17.90;25.90;;;;;;5006815;28;20426;-84
2023/07/16 03:27:30;;;;;;;4.87;2.90;;;17.80;27.40;;;;;;4998040;28;20471;-84
2023/07/16 03:30:12;;;;;;;5.80;3.30;;;17.80;25.80;;;;;;5004365;28;20399;-84
2023/07/16 03:39:48;;;;;;;7.50;3.30;;;17.60;32.80;;;;;;5003729;28;20421;-84
2023/07/16 03:42:14;;;;;;;6.80;3.10;;;17.60;33.60;;;;;;5005234;28;20483;-83
2023/07/16 03:44:39;;;;;;;9.97;3.43;;;17.50;40.30;;;;;;5002643;28;20438;-84
2023/07/16 03:53:49;;;;;;;4.30;3.20;;;17.50;41.30;;;;;;5007990;28;20453;-85
2023/07/16 04:03:02;;;;;;;14.57;3.87;;;17.40;48.40;;;;;;4997129;28;20413;-82
2023/07/16 04:08:49;;;;;;;6.97;3.50;;;17.40;46.70;;;;;;4979878;28;20777;-81
2023/07/16 04:17:59;;;;;;;7.80;3.50;;;17.40;34.80;;;;;;4997363;28;20452;-84
2023/07/16 04:24:35;;;;;;;5.27;3.50;;;17.50;29.50;;;;;;4993963;28;20197;-84
2023/07/16 04:27:53;;;;;;;9.03;3.33;;;17.50;32.00;;;;;;5001811;28;20437;-84
2023/07/16 04:30:37;;;;;;;6.27;3.43;;;17.50;29.20;;;;;;5016038;28;20391;-84
2023/07/16 04:36:25;;;;;;;9.60;3.67;;;17.40;29.90;;;;;;4997057;28;20429;-84
2023/07/16 04:42:12;;;;;;;6.83;3.10;;;17.50;16.30;;;;;;4997621;28;20421;-84
2023/07/16 04:44:38;;;;;;;6.63;3.63;;;17.50;18.90;;;;;;4995544;28;20497;-84
2023/07/16 04:50:26;;;;;;;4.70;3.30;;;17.50;14.20;;;;;;4977999;28;20655;-82
2023/07/16 04:56:14;;;;;;;6.23;3.13;;;17.60;12.00;;;;;;5003384;28;20209;-81
2023/07/16 05:02:12;;;;;;;8.10;3.10;;;17.60;9.60;;;;;;5003629;28;20409;-82
2023/07/16 05:07:59;;;;;;;13.03;3.37;;;17.80;1.00;;;;;;5014819;28;20422;-81
2023/07/16 05:14:06;;;;;;;6.07;3.43;;;17.70;1.00;;;;;;5009735;28;20241;-81
2023/07/16 05:17:11;;;;;;;3.93;2.83;;;17.80;1.00;;;;;;4994429;28;20427;-81
2023/07/16 05:20:03;;;;;;;7.80;3.63;;;17.80;1.00;;;;;;4986794;28;20935;-81
2023/07/16 05:22:39;;;;;;;13.80;3.70;;;17.80;1.00;;;;;;4989225;28;20448;-81
2023/07/16 05:25:12;;;;;;;7.67;3.30;;;17.80;1.00;;;;;;5009888;28;20444;-82
2023/07/16 05:28:11;;;;;;;14.13;3.50;;;;;;;;;;5006860;28;20992;-83
2023/07/16 05:31:14;;;;;;;9.80;3.30;;;18.00;1.00;;;;;;5009140;28;20501;-83
2023/07/16 05:33:42;;;;;;;8.53;3.20;;;18.10;1.00;;;;;;4990495;28;20479;-82
2023/07/16 05:36:18;;;;;;;9.20;3.27;;;;;;;;;;4987174;28;20467;-82
2023/07/16 05:39:03;;;;;;;9.33;3.20;;;18.20;1.00;;;;;;4993083;28;20977;-82
2023/07/16 05:41:54;;;;;;;10.30;3.13;;;18.20;1.00;;;;;;4992676;28;20420;-81
2023/07/16 05:44:39;;;;;;;6.63;2.80;;;;;;;;;;4994262;28;20435;-81
2023/07/16 05:47:09;;;;;;;6.20;2.77;;;18.30;1.00;;;;;;5011990;28;20428;-82
2023/07/16 05:52:56;;;;;;;4.57;2.87;;;18.40;1.00;;;;;;4993257;28;20431;-84
2023/07/16 05:55:53;;;;;;;13.43;3.40;;;18.40;1.00;;;;;;4989270;28;20451;-84
2023/07/16 06:11:47;;;;;;;11.27;3.10;;;18.60;1.00;;;;;;4988200;28;20431;-84
2023/07/16 06:14:30;;;;;;;9.73;3.10;;;18.70;1.00;;;;;;4989994;28;20419;-92
2023/07/16 06:23:40;;;;;;;7.83;3.30;;;18.80;1.00;;;;;;4993953;28;20499;-83
2023/07/16 06:26:36;;;;;;;8.17;3.27;;;18.80;1.00;;;;;;5002810;28;20467;-87
2023/07/16 06:32:30;;;;;;;11.77;3.67;;;19.00;1.00;;;;;;4995123;28;20479;-84
2023/07/16 06:35:14;;;;;;;7.87;3.20;;;19.30;1.00;;;;;;4993903;28;20427;-83
2023/07/16 06:37:42;;;;;;;7.20;3.10;;;19.30;1.00;;;;;;4994383;28;20928;-81
2023/07/16 06:40:25;;;;;;;7.20;3.10;;;19.40;1.00;;;;;;5007562;28;20954;-82
2023/07/16 06:43:24;;;;;;;11.47;3.70;;;19.60;1.00;;;;;;5005437;28;20417;-83
2023/07/16 06:52:33;;;;;;;12.20;3.30;;;19.60;1.00;;;;;;4977329;28;20721;-81
2023/07/16 06:55:06;;;;;;;8.63;2.80;;;19.70;1.00;;;;;;5011760;28;20432;-81
2023/07/16 07:00:56;;;;;;;8.90;3.03;;;20.10;1.00;;;;;;4995316;28;20394;-83
2023/07/16 07:07:02;;;;;;;11.47;3.20;;;20.10;1.00;;;;;;4994589;28;20799;-86
2023/07/16 07:09:31;;;;;;;5.23;3.00;;;20.20;1.00;;;;;;5022978;28;20419;-83
2023/07/16 07:12:48;;;;;;;6.73;2.93;;;20.10;1.00;;;;;;4994578;28;20424;-82
2023/07/16 07:15:24;;;;;;;9.33;3.10;;;20.20;1.00;;;;;;4990203;28;20414;-84
2023/07/16 07:21:36;;;;;;;4.60;3.00;;;20.50;1.00;;;;;;5006979;28;20792;-85
2023/07/16 07:24:06;;;;;;;15.20;4.13;;;20.40;1.00;;;;;;5006280;28;20428;-84
2023/07/16 07:26:37;;;;;;;7.90;3.13;;;20.50;1.00;;;;;;4994152;28;20769;-86
2023/07/16 07:29:36;;;;;;;7.03;3.73;;;20.50;1.00;;;;;;4990057;28;20541;-83
2023/07/16 07:32:37;;;;;;;12.10;3.47;;;20.40;1.00;;;;;;4990103;28;20448;-84
2023/07/16 07:39:21;;;;;;;12.13;3.87;;;20.50;1.00;;;;;;5010683;28;20423;-84
2023/07/16 07:45:30;;;;;;;8.50;3.07;;;20.60;1.00;;;;;;4993716;28;20426;-84
2023/07/16 07:51:36;;;;;;;16.13;3.03;;;21.00;1.00;;;;;;4982439;28;20418;-84
2023/07/16 07:54:23;;;;;;;4.67;3.13;;;21.20;1.00;;;;;;4995043;28;20431;-83
2023/07/16 08:04:05;;;;;;;8.20;3.13;;;21.10;1.00;;;;;;4986392;28;20379;-85
2023/07/16 08:06:54;;;;;;;6.20;2.60;;;21.20;1.00;;;;;;5008873;28;20473;-85
2023/07/16 08:09:20;;;;;;;7.80;3.20;;;21.30;1.00;;;;;;5002107;28;20424;-84
2023/07/16 08:15:13;;;;;;;9.23;2.73;;;21.20;1.00;;;;;;4986834;28;21059;-83
2023/07/16 08:17:48;;;;;;;5.73;2.60;;;21.40;1.00;;;;;;4994799;28;20458;-89
2023/07/16 08:23:54;;;;;;;6.27;2.50;;;21.40;1.00;;;;;;4977843;28;21456;-85
2023/07/16 08:26:20;;;;;;;17.27;2.93;;;21.50;1.00;;;;;;5004992;28;21390;-86
2023/07/16 08:29:05;;;;;;;7.33;2.87;;;21.60;1.00;;;;;;4995859;28;20443;-86
2023/07/16 08:34:59;;;;;;;9.77;3.10;;;21.50;1.00;;;;;;4989792;28;20400;-89
2023/07/16 08:37:30;;;;;;;5.40;2.87;;;21.60;1.00;;;;;;5014162;28;20459;-87
2023/07/16 08:43:49;;;;;;;7.07;3.00;;;21.90;1.00;;;;;;4984124;28;20431;-82
2023/07/16 08:47:06;;;;;;;8.20;2.20;;;22.00;1.00;;;;;;4989161;28;20436;-82
2023/07/16 08:53:41;;;;;;;10.43;2.47;;;22.10;1.00;;;;;;4982801;28;20472;-84
2023/07/16 08:56:19;;;;;;;6.07;2.50;;;22.10;1.00;;;;;;4999491;28;20461;-82
2023/07/16 08:58:46;;;;;;;3.67;2.07;;;22.30;1.00;;;;;;5010984;28;20514;-81
2023/07/16 09:01:13;;;;;;;8.63;2.60;;;22.50;1.00;;;;;;5006736;28;20421;-82
2023/07/16 09:17:06;;;;;;;5.80;2.57;;;23.40;1.00;;;;;;4990347;28;20477;-81
2023/07/16 09:20:02;;;;;;;8.30;2.80;;;23.60;1.00;;;;;;4993065;28;20439;-80
2023/07/16 09:23:23;;;;;;;7.67;2.30;;;23.60;1.00;;;;;;4999613;28;20179;-81
2023/07/16 09:26:36;;;;;;;7.80;2.47;;;23.10;1.00;;;;;;5006568;28;20412;-83
2023/07/16 09:29:53;;;;;;;9.17;2.43;;;23.10;1.00;;;;;;4998877;28;21107;-81
2023/07/16 09:32:59;;;;;;;5.20;2.70;;;23.40;1.00;;;;;;5003669;28;20472;-82
2023/07/16 09:35:30;;;;;;;6.80;2.80;;;23.40;1.00;;;;;;5007423;28;20446;-82
2023/07/16 09:37:56;;;;;;;6.67;2.50;;;23.30;1.00;;;;;;4982688;28;20948;-82
2023/07/16 09:40:55;;;;;;;3.83;2.27;;;23.30;1.00;;;;;;4993148;28;20518;-84
2023/07/16 09:43:30;;;;;;;5.17;2.23;;;23.20;1.00;;;;;;4989488;28;20176;-85
2023/07/16 09:49:18;;;;;;;7.00;2.70;;;23.50;1.00;;;;;;4982304;28;20426;-78
2023/07/16 09:52:02;;;;;;;9.43;2.87;;;23.70;1.00;;;;;;4989638;28;20455;-80
2023/07/16 09:55:11;;;;;;;6.60;2.40;;;23.80;1.00;;;;;;4988508;28;20433;-84
2023/07/16 09:58:23;;;;;;;6.30;2.37;;;23.70;1.00;;;;;;4997070;28;20474;-83
2023/07/16 10:04:16;;;;;;;4.73;2.40;;;24.10;1.00;;;;;;4988284;28;20456;-84
2023/07/16 10:07:01;;;;;;;6.03;2.40;;;24.10;1.00;;;;;;4991298;28;20443;-84
2023/07/16 10:16:27;;;;;;;7.10;2.63;;;24.20;1.00;;;;;;4998759;28;21061;-79
2023/07/16 10:19:30;;;;;;;6.20;2.20;;;24.20;1.00;;;;;;5000870;28;20420;-79
2023/07/16 10:22:29;;;;;;;6.93;2.40;;;24.30;1.00;;;;;;5001442;28;20426;-79
2023/07/16 10:27:58;;;;;;;5.93;2.50;;;24.40;1.00;;;;;;4992306;28;20474;-83
2023/07/16 10:34:05;;;;;;;15.10;5.13;;;24.50;1.00;;;;;;4984436;28;20201;-83
2023/07/16 10:36:59;;;;;;;10.80;3.40;;;24.40;1.00;;;;;;4997495;28;21000;-83
2023/07/16 10:43:12;;;;;;;6.60;2.87;;;24.60;1.00;;;;;;4993493;28;20422;-84
2023/07/16 10:45:50;;;;;;;6.03;2.67;;;24.80;1.00;;;;;;4992623;28;20498;-84
2023/07/16 10:48:26;;;;;;;63.97;19.80;;;24.60;1.00;;;;;;4990524;28;20434;-86
2023/07/16 10:51:24;;;;;;;128.27;66.60;;;24.70;1.00;;;;;;4988809;28;20458;-83
2023/07/16 10:54:29;;;;;;;16.97;7.60;;;25.10;1.00;;;;;;4990231;28;20472;-84
2023/07/16 10:57:00;;;;;;;8.13;3.70;;;25.10;1.00;;;;;;4990099;28;20458;-84
2023/07/16 10:59:26;;;;;;;6.80;3.20;;;25.40;1.00;;;;;;4993143;28;20462;-86
2023/07/16 11:05:30;;;;;;;5.93;3.67;;;26.20;1.00;;;;;;4982752;28;20254;-83
2023/07/16 11:08:29;;;;;;;12.07;3.10;;;26.20;1.00;;;;;;5009530;28;20419;-84
2023/07/16 11:11:00;;;;;;;6.07;2.53;;;26.30;1.00;;;;;;5005129;28;20444;-83
2023/07/16 11:13:43;;;;;;;11.33;2.90;;;26.20;1.00;;;;;;5008143;28;20478;-83
2023/07/16 11:19:47;;;;;;;4.70;2.13;;;26.20;1.00;;;;;;4988309;28;20456;-85
2023/07/16 11:22:30;;;;;;;2.10;1.80;;;26.10;1.00;;;;;;4993211;28;20430;-85
2023/07/16 11:25:27;;;;;;;8.30;2.50;;;26.20;1.00;;;;;;4979749;28;20429;-85
2023/07/16 11:28:02;;;;;;;4.20;2.50;;;26.60;1.00;;;;;;4980957;28;20460;-84
2023/07/16 11:31:09;;;;;;;6.20;2.23;;;26.50;1.00;;;;;;4958231;28;20450;-85
2023/07/16 11:33:35;;;;;;;4.10;2.00;;;26.70;1.00;;;;;;4976488;28;20441;-84
2023/07/16 11:36:18;;;;;;;5.57;2.20;;;26.80;1.00;;;;;;4960002;28;20600;-85
2023/07/16 11:42:31;;;;;;;5.20;2.50;;;26.30;1.00;;;;;;4971129;28;20424;-84
2023/07/16 11:45:30;;;;;;;18.07;3.37;;;26.30;1.00;;;;;;4975226;28;20828;-84
2023/07/16 11:48:00;;;;;;;12.20;2.07;;;26.60;1.00;;;;;;4986826;28;20428;-82
2023/07/16 11:51:00;;;;;;;9.83;2.30;;;26.60;1.00;;;;;;4962269;28;20439;-84
2023/07/16 11:53:59;;;;;;;7.43;2.17;;;26.60;1.00;;;;;;4975222;28;21033;-84
2023/07/16 11:56:30;;;;;;;6.30;2.03;;;26.80;1.00;;;;;;4954851;28;20462;-80
2023/07/16 11:59:00;;;;;;;4.57;2.37;;;26.60;1.00;;;;;;4974328;28;20781;-81
2023/07/16 12:01:26;;;;;;;5.83;2.47;;;26.60;1.00;;;;;;4957917;28;20977;-80
2023/07/16 12:04:00;;;;;;;5.27;2.20;;;26.70;1.00;;;;;;4981791;28;20445;-80
2023/07/16 12:06:59;;;;;;;5.10;2.17;;;26.60;1.00;;;;;;5003332;28;20561;-79
2023/07/16 12:10:00;;;;;;;2.30;1.90;;;26.50;1.00;;;;;;4995472;28;20425;-84
2023/07/16 12:15:47;;;;;;;16.80;2.07;;;26.60;1.00;;;;;;5001651;28;20991;-85
2023/07/16 12:18:18;;;;;;;7.60;2.20;;;26.80;1.00;;;;;;4989057;28;20516;-84
2023/07/16 12:21:30;;;;;;;3.63;2.00;;;26.80;1.00;;;;;;5007728;28;20179;-86
2023/07/16 12:24:00;;;;;;;4.90;2.00;;;26.70;1.00;;;;;;5000507;28;20439;-86
2023/07/16 12:26:33;;;;;;;11.23;2.40;;;27.10;1.00;;;;;;4992712;28;20435;-84
2023/07/16 12:29:03;;;;;;;22.97;2.33;;;27.00;1.00;;;;;;4979680;28;20957;-84
2023/07/16 12:32:00;;;;;;;38.67;3.50;;;26.80;1.00;;;;;;4987295;28;20445;-86
2023/07/16 12:34:30;;;;;;;12.73;2.47;;;26.80;1.00;;;;;;5005069;28;20468;-84
2023/07/16 12:37:00;;;;;;;21.47;2.87;;;26.80;1.00;;;;;;4994090;28;21018;-86
2023/07/16 12:39:30;;;;;;;3.70;2.00;;;26.80;1.00;;;;;;4994904;28;20437;-83
2023/07/16 12:42:18;;;;;;;8.47;2.40;;;26.90;1.00;;;;;;4990889;28;20469;-84
2023/07/16 12:45:29;;;;;;;2.83;2.50;;;26.90;1.00;;;;;;4986541;28;20441;-88
2023/07/16 12:48:30;;;;;;;8.37;3.90;;;27.10;1.00;;;;;;4996159;28;20478;-86
2023/07/16 12:51:00;;;;;;;10.50;7.00;;;27.50;1.00;;;;;;4998444;28;20446;-87
2023/07/16 12:53:26;;;;;;;25.77;4.37;;;27.20;1.00;;;;;;5002205;28;21245;-86
2023/07/16 12:56:00;;;;;;;9.03;2.47;;;27.40;1.00;;;;;;5012161;28;20422;-87
2023/07/16 13:02:00;;;;;;;5.87;2.30;;;27.70;1.00;;;;;;4997219;28;20893;-85
2023/07/16 13:04:30;;;;;;;12.47;2.60;;;;;;;;;;5012721;28;20844;-85
2023/07/16 13:07:00;;;;;;;7.70;3.07;;;;;;;;;;5013515;28;20823;-83
2023/07/16 13:09:30;;;;;;;6.00;2.67;;;27.10;1.00;;;;;;5002200;28;20412;-84
2023/07/16 13:12:00;;;;;;;5.77;3.10;;;27.30;1.00;;;;;;5002904;28;20944;-84
2023/07/16 13:14:30;;;;;;;6.00;3.30;;;27.30;1.00;;;;;;5006724;28;20426;-86
2023/07/16 13:17:30;;;;;;;5.47;3.13;;;27.20;1.00;;;;;;5000614;28;21000;-85
2023/07/16 13:20:00;;;;;;;7.47;3.80;;;27.40;1.00;;;;;;4991888;28;20520;-86
2023/07/16 13:22:30;;;;;;;4.63;2.73;;;27.50;1.00;;;;;;4995951;28;20941;-85
2023/07/16 13:25:00;;;;;;;4.80;2.40;;;27.10;1.00;;;;;;4986096;28;20414;-86
2023/07/16 13:27:30;;;;;;;11.87;2.93;;;27.00;1.00;;;;;;5014035;28;20440;-86
2023/07/16 13:30:30;;;;;;;8.63;3.10;;;27.30;1.00;;;;;;5013715;28;20486;-85
2023/07/16 13:33:12;;;;;;;6.80;3.07;;;27.60;1.00;;;;;;5013549;28;20923;-85
2023/07/16 13:35:43;;;;;;;5.30;3.30;;;27.50;1.00;;;;;;5005310;28;21027;-85
2023/07/16 13:38:30;;;;;;;10.70;2.80;;;27.60;1.00;;;;;;5006368;28;20466;-84
2023/07/16 13:41:00;;;;;;;6.77;3.30;;;27.90;1.00;;;;;;4998034;28;20415;-84
2023/07/16 13:43:30;;;;;;;9.83;2.90;;;28.10;1.00;;;;;;4996920;28;20783;-86
2023/07/16 13:46:30;;;;;;;6.33;3.27;;;28.10;1.00;;;;;;5007311;28;20427;-85
2023/07/16 13:49:00;;;;;;;5.90;3.00;;;28.10;1.00;;;;;;5010150;28;20418;-86
2023/07/16 13:51:30;;;;;;;8.30;3.00;;;27.70;1.00;;;;;;4981547;28;20404;-84
2023/07/16 13:54:00;;;;;;;3.30;2.90;;;27.90;1.00;;;;;;4999247;28;20439;-86
2023/07/16 13:56:30;;;;;;;4.33;3.20;;;28.20;1.00;;;;;;5001039;28;20981;-86
2023/07/16 13:59:00;;;;;;;18.73;3.30;;;28.20;1.00;;;;;;5001360;28;20515;-84
2023/07/16 14:01:26;;;;;;;6.07;3.30;;;28.40;1.00;;;;;;4985667;28;20481;-85
2023/07/16 14:04:00;;;;;;;4.57;3.10;;;28.30;1.00;;;;;;5013419;28;20468;-84
2023/07/16 14:06:30;;;;;;;5.23;3.20;;;28.30;1.00;;;;;;4987083;28;20176;-84
2023/07/16 14:09:00;;;;;;;4.90;3.23;;;28.20;1.00;;;;;;5009504;28;20499;-84
2023/07/16 14:11:30;;;;;;;6.77;3.00;;;28.40;1.00;;;;;;4993426;28;20430;-84
2023/07/16 14:14:06;;;;;;;4.60;3.00;;;28.70;1.00;;;;;;4988246;28;20507;-84
2023/07/16 14:19:53;;;;;;;7.67;3.23;;;29.00;1.00;;;;;;4983097;28;20481;-86
2023/07/16 14:22:42;;;;;;;6.17;3.43;;;29.00;1.00;;;;;;4993808;28;20909;-85
2023/07/16 14:25:47;;;;;;;7.60;3.47;;;28.80;1.00;;;;;;5005907;28;20181;-87
2023/07/16 14:28:42;;;;;;;6.10;3.47;;;28.40;1.00;;;;;;4995787;28;20458;-86
2023/07/16 14:31:07;;;;;;;3.57;3.10;;;28.30;1.00;;;;;;4990070;28;20456;-88
2023/07/16 14:43:38;;;;;;;4.40;3.40;;;28.50;1.00;;;;;;5014478;28;20536;-83
2023/07/16 14:46:37;;;;;;;7.53;3.47;;;28.80;1.00;;;;;;4999831;28;20930;-83
2023/07/16 14:49:18;;;;;;;5.60;3.13;;;28.90;1.00;;;;;;4992983;28;20184;-82
2023/07/16 14:58:27;;;;;;;9.13;3.20;;;30.10;1.00;;;;;;4978047;28;20966;-83
2023/07/16 15:00:53;;;;;;;6.63;4.03;;;30.00;1.00;;;;;;4986400;28;20461;-83
2023/07/16 15:03:24;;;;;;;9.30;3.97;;;30.00;1.00;;;;;;4992323;28;20185;-83
2023/07/16 15:05:56;;;;;;;4.50;3.73;;;29.70;1.00;;;;;;4994217;28;20178;-84
2023/07/16 15:08:21;;;;;;;8.60;3.90;;;29.90;1.00;;;;;;4998024;28;20903;-84
2023/07/16 15:11:06;;;;;;;4.60;3.30;;;29.90;1.00;;;;;;4989741;28;20430;-83
2023/07/16 15:14:06;;;;;;;5.67;3.33;;;30.10;1.00;;;;;;4984577;28;20205;-84
2023/07/16 15:16:31;;;;;;;4.73;3.57;;;31.00;1.00;;;;;;4988269;28;20463;-83
2023/07/16 15:22:48;;;;;;;12.50;4.13;;;31.60;1.00;;;;;;4998740;28;20280;-85
2023/07/16 15:28:43;;;;;;;7.00;3.73;;;33.40;1.00;;;;;;4989452;28;20915;-84
2023/07/16 15:31:19;;;;;;;6.20;3.47;;;33.80;1.00;;;;;;4999808;28;20449;-86
2023/07/16 15:34:36;;;;;;;7.10;3.23;;;34.10;1.00;;;;;;5009391;28;20439;-86
2023/07/16 15:37:42;;;;;;;5.97;3.23;;;35.40;1.00;;;;;;4996612;28;20978;-85
2023/07/16 15:40:36;;;;;;;9.80;3.37;;;35.70;1.00;;;;;;4994286;28;20463;-85
2023/07/16 15:46:31;;;;;;;9.47;7.63;;;36.20;1.00;;;;;;5007570;28;20423;-85
2023/07/16 15:53:00;;;;;;;10.40;5.80;;;36.50;1.00;;;;;;4989694;28;20862;-85
2023/07/16 15:55:43;;;;;;;7.50;4.93;;;36.40;1.00;;;;;;4983885;28;20433;-85
2023/07/16 16:05:24;;;;;;;8.00;3.80;;;37.80;1.00;;;;;;4995255;28;20419;-84
2023/07/16 16:08:24;;;;;;;6.30;3.80;;;36.00;1.00;;;;;;5002255;28;20439;-85
2023/07/16 16:14:11;;;;;;;7.50;3.37;;;35.20;1.00;;;;;;5003067;28;20406;-85
2023/07/16 16:17:00;;;;;;;4.20;3.60;;;35.90;1.00;;;;;;5016345;28;20451;-86
2023/07/16 16:20:07;;;;;;;10.60;4.07;;;36.70;1.00;;;;;;4991480;28;20304;-84
2023/07/16 16:22:36;;;;;;;6.97;3.67;;;36.10;1.00;;;;;;4996259;28;20457;-85
2023/07/16 16:25:18;;;;;;;6.40;3.77;;;36.60;1.00;;;;;;5009953;28;20428;-84
2023/07/16 16:27:48;;;;;;;8.37;3.83;;;36.20;1.00;;;;;;4994146;28;20522;-86
2023/07/16 16:33:36;;;;;;;7.30;3.63;;;37.20;1.00;;;;;;4985305;28;20517;-84
2023/07/16 16:36:13;;;;;;;7.20;3.73;;;37.40;1.00;;;;;;4994411;28;20452;-88
2023/07/16 16:38:42;;;;;;;7.63;3.53;;;38.30;1.00;;;;;;4993098;28;20181;-88
2023/07/16 16:41:12;;;;;;;7.57;3.83;;;38.50;1.00;;;;;;4996294;28;20492;-88
2023/07/16 16:43:42;;;;;;;7.07;3.70;;;38.20;1.00;;;;;;4992317;28;20437;-87
2023/07/16 16:46:09;;;;;;;7.53;3.63;;;37.10;1.00;;;;;;4992179;28;20440;-87
2023/07/16 16:48:37;;;;;;;6.40;3.70;;;38.20;1.00;;;;;;4994131;28;20433;-87
2023/07/16 16:51:12;;;;;;;8.07;3.47;;;37.80;1.00;;;;;;5009606;28;20558;-88
2023/07/16 16:53:45;;;;;;;11.10;4.73;;;38.50;1.00;;;;;;4994782;28;20440;-88
2023/07/16 16:56:11;;;;;;;4.43;3.77;;;38.00;1.00;;;;;;4996422;28;20427;-87
2023/07/16 16:58:36;;;;;;;5.10;3.80;;;37.30;1.00;;;;;;4995341;28;20436;-86
2023/07/16 17:01:30;;;;;;;5.53;3.70;;;37.00;1.00;;;;;;4996306;28;20213;-85
2023/07/16 17:03:56;;;;;;;6.70;4.13;;;;;;;;;;4984516;28;20190;-84
2023/07/16 17:06:30;;;;;;;5.23;3.70;;;;;;;;;;4995830;28;20897;-86
2023/07/16 17:09:18;;;;;;;6.77;3.13;;;35.80;1.00;;;;;;4995840;28;20481;-84
2023/07/16 17:11:43;;;;;;;4.73;3.73;;;35.90;1.00;;;;;;4994998;28;20437;-85
2023/07/16 17:14:12;;;;;;;6.93;3.63;;;36.70;1.00;;;;;;4997950;28;20431;-83
2023/07/16 17:16:37;;;;;;;8.93;3.87;;;37.60;1.00;;;;;;4988564;28;20205;-89
2023/07/16 17:19:03;;;;;;;5.23;3.50;;;37.50;1.00;;;;;;5010557;28;20440;-87
2023/07/16 17:21:30;;;;;;;11.10;4.00;;;38.10;1.00;;;;;;5006329;28;20272;-87
2023/07/16 17:24:01;;;;;;;7.70;3.73;;;37.10;1.00;;;;;;5010440;28;20189;-88
2023/07/16 17:26:38;;;;;;;3.93;3.10;;;37.10;1.00;;;;;;5003211;28;20428;-90
2023/07/16 17:29:04;;;;;;;4.53;3.33;;;37.30;1.00;;;;;;4999691;28;20916;-90
2023/07/16 17:31:31;;;;;;;9.43;3.87;;;37.60;1.00;;;;;;5004317;28;20447;-84
2023/07/16 17:33:56;;;;;;;12.40;4.50;;;38.50;1.00;;;;;;4992520;28;20646;-84
2023/07/16 17:36:24;;;;;;;6.60;2.90;;;39.30;1.00;;;;;;4991634;28;20472;-85
2023/07/16 17:38:50;;;;;;;6.10;3.33;;;39.50;1.00;;;;;;5001845;28;20699;-86
2023/07/16 17:41:15;;;;;;;3.17;2.87;;;39.70;1.00;;;;;;5003836;28;20429;-86
2023/07/16 17:43:42;;;;;;;5.10;3.27;;;39.20;1.00;;;;;;4986087;28;20185;-88
2023/07/16 17:56:14;;;;;;;7.33;3.40;;;35.00;1.00;;;;;;5014544;28;20379;-88
2023/07/16 17:58:48;;;;;;;6.00;4.03;;;;;;;;;;5004687;28;20904;-89
2023/07/16 18:11:30;;;;;;;6.77;3.83;;;28.50;1.00;;;;;;4987566;28;20458;-88
2023/07/16 18:17:18;;;;;;;7.30;4.13;;;27.60;1.00;;;;;;5005503;28;20468;-87
2023/07/16 18:19:43;;;;;;;7.57;3.90;;;27.60;1.00;;;;;;4984408;28;20528;-86
2023/07/16 18:22:42;;;;;;;7.73;4.60;;;27.20;1.00;;;;;;4986441;28;20642;-89
2023/07/16 18:31:52;;;;;;;8.40;4.20;;;25.90;1.00;;;;;;4992417;28;20438;-88
2023/07/16 18:38:36;;;;;;;9.20;4.13;;;25.70;1.00;;;;;;4985141;28;20539;-90
2023/07/16 18:44:23;;;;;;;8.40;4.53;;;25.30;1.00;;;;;;5002093;28;20493;-85
2023/07/16 18:47:18;;;;;;;13.47;4.50;;;25.10;1.00;;;;;;5000589;28;20930;-83